createdAt,value
2022-12-09T00:02:20.532Z,2.65
2022-12-09T00:05:50.960Z,2.72
2022-12-09T00:09:18.427Z,2.76
2022-12-09T00:12:45.488Z,2.79
2022-12-09T00:16:17.016Z,2.78
2022-12-09T00:19:45.543Z,2.75
2022-12-09T00:23:12.798Z,2.73
2022-12-09T00:26:39.971Z,2.70
2022-12-09T00:30:11.756Z,2.69
2022-12-09T00:33:39.077Z,2.64
2022-12-09T00:37:06.613Z,2.59
2022-12-09T00:40:33.856Z,2.56
2022-12-09T00:44:01.305Z,2.53
2022-12-09T00:47:29.686Z,2.53
2022-12-09T00:50:57.770Z,2.51
2022-12-09T00:54:28.252Z,2.53
2022-12-09T00:57:55.583Z,2.58
2022-12-09T01:01:28.347Z,2.65
2022-12-09T01:04:58.060Z,2.72
2022-12-09T01:08:25.447Z,2.77
2022-12-09T01:11:52.698Z,2.79
2022-12-09T01:15:19.386Z,2.82
2022-12-09T01:18:47.428Z,2.85
2022-12-09T01:22:14.936Z,2.88
2022-12-09T01:25:45.962Z,2.92
2022-12-09T01:29:13.239Z,2.95
2022-12-09T01:32:41.773Z,2.92
2022-12-09T01:36:11.828Z,2.90
2022-12-09T01:39:38.839Z,2.85
2022-12-09T01:43:13.351Z,2.80
2022-12-09T01:46:41.304Z,2.76
2022-12-09T01:50:11.864Z,2.72
2022-12-09T01:53:43.362Z,2.68
2022-12-09T01:57:12.611Z,2.66
2022-12-09T02:00:39.440Z,2.65
2022-12-09T02:04:06.864Z,2.64
2022-12-09T02:07:35.746Z,2.63
2022-12-09T02:11:24.284Z,2.63
2022-12-09T02:14:59.615Z,2.66
2022-12-09T02:18:31.004Z,2.71
2022-12-09T02:22:01.756Z,2.76
2022-12-09T02:25:38.180Z,2.82
2022-12-09T02:29:47.224Z,2.90
2022-12-09T02:33:27.725Z,2.92
2022-12-09T02:37:04.003Z,2.94
2022-12-09T02:40:35.492Z,2.89
2022-12-09T02:44:08.166Z,2.83
2022-12-09T02:47:38.177Z,2.76
2022-12-09T02:51:09.027Z,2.70
2022-12-09T02:54:39.100Z,2.66
2022-12-09T02:58:07.365Z,2.62
2022-12-09T03:01:43.044Z,2.58
2022-12-09T03:05:22.663Z,2.59
2022-12-09T03:08:58.383Z,2.60
2022-12-09T03:12:32.084Z,2.60
2022-12-09T03:16:10.205Z,2.60
2022-12-09T03:19:42.429Z,2.61
2022-12-09T03:23:11.055Z,2.64
2022-12-09T03:26:41.186Z,2.73
2022-12-09T03:30:12.832Z,2.84
2022-12-09T03:33:42.685Z,2.92
2022-12-09T03:37:12.706Z,2.93
2022-12-09T03:40:40.717Z,2.91
2022-12-09T03:44:14.094Z,2.85
2022-12-09T03:47:41.880Z,2.78
2022-12-09T03:51:13.799Z,2.72
2022-12-09T03:54:45.507Z,2.69
2022-12-09T03:58:16.357Z,2.65
2022-12-09T04:01:45.988Z,2.60
2022-12-09T04:05:14.587Z,2.58
2022-12-09T04:08:41.210Z,2.57
2022-12-09T04:12:08.926Z,2.56
2022-12-09T04:15:36.045Z,2.57
2022-12-09T04:19:02.724Z,2.61
2022-12-09T04:22:30.075Z,2.63
2022-12-09T04:25:56.821Z,2.65
2022-12-09T04:29:23.131Z,2.69
2022-12-09T04:32:54.428Z,2.73
2022-12-09T04:36:23.089Z,2.80
2022-12-09T04:39:50.439Z,2.85
2022-12-09T04:43:17.189Z,2.80
2022-12-09T04:46:44.263Z,2.85
2022-12-09T04:50:13.817Z,2.85
2022-12-09T04:53:42.622Z,2.84
2022-12-09T04:57:12.434Z,2.80
2022-12-09T05:00:40.492Z,2.75
2022-12-09T05:04:07.216Z,2.66
2022-12-09T05:07:34.430Z,2.54
2022-12-09T05:11:01.691Z,2.48
2022-12-09T05:14:28.614Z,2.47
2022-12-09T05:17:55.401Z,2.45
2022-12-09T05:21:23.277Z,2.45
2022-12-09T05:24:50.419Z,2.45
2022-12-09T05:28:17.931Z,2.43
2022-12-09T05:31:44.811Z,2.44
2022-12-09T05:35:12.639Z,2.50
2022-12-09T05:38:39.822Z,2.52
2022-12-09T05:42:07.773Z,2.60
2022-12-09T05:45:35.708Z,2.62
2022-12-09T05:49:03.904Z,2.63
2022-12-09T05:52:33.471Z,2.63
2022-12-09T05:56:02.379Z,2.66
2022-12-09T05:59:30.009Z,2.66
2022-12-09T06:02:57.752Z,2.67
2022-12-09T06:06:28.422Z,2.66
2022-12-09T06:09:56.466Z,2.64
2022-12-09T06:13:24.626Z,2.57
2022-12-09T06:16:51.844Z,2.46
2022-12-09T06:20:19.563Z,2.35
2022-12-09T06:23:46.943Z,2.26
2022-12-09T06:27:17.807Z,2.22
2022-12-09T06:30:49.039Z,2.21
2022-12-09T06:34:16.450Z,2.18
2022-12-09T06:37:43.546Z,2.18
2022-12-09T06:41:12.377Z,2.18
2022-12-09T06:44:40.414Z,2.16
2022-12-09T06:48:09.219Z,2.17
2022-12-09T06:51:36.974Z,2.22
2022-12-09T06:55:05.853Z,2.28
2022-12-09T06:58:33.875Z,2.33
2022-12-09T07:02:00.800Z,2.26
2022-12-09T07:05:29.033Z,2.15
2022-12-09T07:08:59.272Z,2.10
2022-12-09T07:12:26.638Z,2.08
2022-12-09T07:15:55.350Z,2.05
2022-12-09T07:19:25.497Z,2.01
2022-12-09T07:22:52.672Z,1.94
2022-12-09T07:26:20.647Z,1.88
2022-12-09T07:29:47.543Z,1.83
2022-12-09T07:33:15.387Z,1.79
2022-12-09T07:36:42.579Z,1.75
2022-12-09T07:40:11.783Z,1.72
2022-12-09T07:43:40.465Z,1.75
2022-12-09T07:47:07.738Z,1.79
2022-12-09T07:50:34.512Z,1.85
2022-12-09T07:54:01.978Z,1.92
2022-12-09T07:57:29.106Z,1.97
2022-12-09T08:00:59.737Z,1.98
2022-12-09T08:04:33.645Z,2.00
2022-12-09T08:08:01.409Z,2.00
2022-12-09T08:11:32.262Z,2.03
2022-12-09T08:14:59.649Z,2.04
2022-12-09T08:18:26.727Z,2.05
2022-12-09T08:21:54.918Z,2.07
2022-12-09T08:25:22.380Z,2.06
2022-12-09T08:28:49.557Z,2.07
2022-12-09T08:32:18.788Z,2.10
2022-12-09T08:35:46.988Z,2.10
2022-12-09T08:39:15.676Z,2.08
2022-12-09T08:42:43.271Z,2.09
2022-12-09T08:46:11.211Z,2.13
2022-12-09T08:49:38.590Z,2.12
2022-12-09T08:53:05.478Z,2.22
2022-12-09T08:56:34.250Z,2.29
2022-12-09T09:00:01.269Z,2.35
2022-12-09T09:03:30.621Z,2.43
2022-12-09T09:06:57.088Z,2.50
2022-12-09T09:10:24.074Z,2.57
2022-12-09T09:13:52.565Z,2.65
2022-12-09T09:17:19.612Z,2.70
2022-12-09T09:20:49.085Z,2.70
2022-12-09T09:24:19.005Z,2.70
2022-12-09T09:27:45.885Z,2.67
2022-12-09T09:31:22.167Z,2.66
2022-12-09T09:34:50.863Z,2.67
2022-12-09T09:38:18.221Z,2.67
2022-12-09T09:41:54.531Z,2.67
2022-12-09T09:45:25.019Z,2.66
2022-12-09T09:48:53.756Z,2.67
2022-12-09T09:52:24.703Z,2.69
2022-12-09T09:55:58.277Z,2.71
2022-12-09T09:59:36.511Z,2.74
2022-12-09T10:03:12.401Z,2.81
2022-12-09T10:06:51.979Z,2.88
2022-12-09T10:10:32.490Z,2.95
2022-12-09T10:14:12.049Z,3.03
2022-12-09T10:17:47.871Z,3.08
2022-12-09T10:21:30.081Z,3.13
2022-12-09T10:24:59.839Z,3.18
2022-12-09T10:28:29.178Z,3.20
2022-12-09T10:31:56.137Z,3.19
2022-12-09T10:35:25.607Z,3.23
2022-12-09T10:38:52.524Z,3.21
2022-12-09T10:42:37.368Z,3.19
2022-12-09T10:46:17.721Z,3.19
2022-12-09T10:49:49.484Z,3.12
2022-12-09T10:53:18.695Z,3.05
2022-12-09T10:57:04.392Z,3.04
2022-12-09T11:00:35.078Z,3.05
2022-12-09T11:04:13.574Z,3.13
2022-12-09T11:11:21.693Z,3.34
2022-12-09T11:14:55.639Z,3.45
2022-12-09T11:18:25.658Z,3.52
2022-12-09T11:21:52.419Z,3.52
2022-12-09T11:25:25.117Z,3.52
2022-12-09T11:29:04.594Z,3.55
2022-12-09T11:32:31.615Z,3.59
2022-12-09T11:36:03.691Z,3.62
2022-12-09T11:39:32.490Z,3.56
2022-12-09T11:42:59.916Z,3.51
2022-12-09T11:46:29.254Z,3.48
2022-12-09T11:50:05.448Z,3.45
2022-12-09T11:53:34.813Z,3.40
2022-12-09T11:57:06.904Z,3.37
2022-12-09T12:00:47.982Z,3.35
2022-12-09T12:04:16.085Z,3.32
2022-12-09T12:07:48.062Z,3.27
2022-12-09T12:11:18.948Z,3.27
2022-12-09T12:14:47.543Z,3.30
2022-12-09T12:18:19.846Z,3.34
2022-12-09T12:21:57.530Z,3.37
2022-12-09T12:25:46.592Z,3.44
2022-12-09T12:29:28.914Z,3.51
2022-12-09T12:33:59.751Z,3.58
2022-12-09T12:37:17.357Z,3.57
2022-12-09T12:40:56.422Z,3.57
2022-12-09T12:44:54.657Z,3.59
2022-12-09T12:48:31.732Z,3.57
2022-12-09T12:52:54.768Z,3.56
2022-12-09T12:56:08.758Z,3.54
2022-12-09T12:59:42.933Z,3.51
2022-12-09T13:03:21.162Z,3.47
2022-12-09T13:06:52.746Z,3.39
2022-12-09T13:10:27.898Z,3.35
2022-12-09T13:13:57.364Z,3.33
2022-12-09T13:17:28.461Z,3.32
2022-12-09T13:21:00.012Z,3.32
2022-12-09T13:24:42.437Z,3.32
2022-12-09T13:28:15.709Z,3.34
2022-12-09T13:31:51.251Z,3.37
2022-12-09T13:35:25.904Z,3.39
2022-12-09T13:38:56.559Z,3.42
2022-12-09T13:42:56.670Z,3.46
2022-12-09T13:46:27.296Z,3.47
2022-12-09T13:49:59.953Z,3.45
2022-12-09T13:53:32.766Z,3.39
2022-12-09T13:57:17.863Z,3.32
2022-12-09T14:01:04.315Z,3.25
2022-12-09T14:04:38.287Z,3.14
2022-12-09T14:08:17.230Z,3.06
2022-12-09T14:11:48.554Z,2.99
2022-12-09T14:15:44.545Z,2.93
2022-12-09T14:19:47.878Z,2.87
2022-12-09T14:23:23.886Z,2.82
2022-12-09T14:27:12.680Z,2.81
2022-12-09T14:31:11.040Z,2.81
2022-12-09T14:34:45.114Z,2.84
2022-12-09T14:38:24.143Z,2.89
2022-12-09T14:41:56.914Z,2.94
2022-12-09T14:45:32.493Z,3.00
2022-12-09T14:49:02.825Z,3.03
2022-12-09T14:52:34.422Z,3.06
2022-12-09T14:56:01.745Z,3.07
2022-12-09T14:59:34.046Z,3.04
2022-12-09T15:06:50.491Z,2.92
2022-12-09T15:10:25.393Z,2.83
2022-12-09T15:14:17.513Z,2.75
2022-12-09T15:17:47.710Z,2.65
2022-12-09T15:21:27.916Z,2.58
2022-12-09T15:24:56.103Z,2.54
2022-12-09T15:28:26.606Z,2.50
2022-12-09T15:31:53.861Z,2.43
2022-12-09T15:35:23.823Z,2.39
2022-12-09T15:38:56.314Z,2.36
2022-12-09T15:42:28.178Z,2.38
2022-12-09T15:45:57.809Z,2.39
2022-12-09T15:49:28.167Z,2.47
2022-12-09T15:52:57.501Z,2.53
2022-12-09T15:56:30.628Z,2.59
2022-12-09T16:00:00.330Z,2.65
2022-12-09T16:03:30.436Z,2.66
2022-12-09T16:06:57.237Z,2.68
2022-12-09T16:10:27.211Z,2.68
2022-12-09T16:14:10.488Z,2.66
2022-12-09T16:17:52.668Z,2.61
2022-12-09T16:21:30.454Z,2.55
2022-12-09T16:25:17.380Z,2.47
2022-12-09T16:28:46.530Z,2.39
2022-12-09T16:32:30.722Z,2.29
2022-12-09T16:36:10.435Z,2.20
2022-12-09T16:39:38.320Z,2.16
2022-12-09T16:43:22.304Z,2.13
2022-12-09T16:46:48.651Z,2.12
2022-12-09T16:50:16.264Z,2.14
2022-12-09T16:53:47.318Z,2.16
2022-12-09T16:57:17.779Z,2.22
2022-12-09T17:00:44.309Z,2.28
2022-12-09T17:04:16.384Z,2.33
2022-12-09T17:07:43.208Z,2.36
2022-12-09T17:11:10.269Z,2.35
2022-12-09T17:14:36.899Z,2.33
2022-12-09T17:18:05.185Z,2.27
2022-12-09T17:21:32.238Z,2.24
2022-12-09T17:25:01.806Z,2.21
2022-12-09T17:28:33.273Z,2.21
2022-12-09T17:32:00.260Z,2.17
2022-12-09T17:35:27.382Z,2.09
2022-12-09T17:38:55.522Z,2.00
2022-12-09T17:42:22.326Z,1.96
2022-12-09T17:45:48.881Z,1.92
2022-12-09T17:49:15.790Z,1.85
2022-12-09T17:52:43.271Z,1.83
2022-12-09T17:56:14.340Z,1.82
2022-12-09T17:59:42.529Z,1.82
2022-12-09T18:03:17.905Z,1.85
2022-12-09T18:06:49.425Z,1.89
2022-12-09T18:10:17.007Z,1.94
2022-12-09T18:13:48.126Z,1.99
2022-12-09T18:17:17.678Z,2.06
2022-12-09T18:20:51.577Z,2.09
2022-12-09T18:24:36.762Z,2.10
2022-12-09T18:28:33.220Z,2.07
2022-12-09T18:32:03.392Z,2.01
2022-12-09T18:35:35.833Z,1.96
2022-12-09T18:39:03.519Z,1.86
2022-12-09T18:42:37.385Z,1.81
2022-12-09T18:46:19.283Z,1.74
2022-12-09T18:49:52.893Z,1.66
2022-12-09T18:53:20.311Z,1.61
2022-12-09T18:56:48.531Z,1.56
2022-12-09T19:00:22.259Z,1.52
2022-12-09T19:03:52.461Z,1.50
2022-12-09T19:07:31.972Z,1.49
2022-12-09T19:11:06.743Z,1.49
2022-12-09T19:14:40.302Z,1.53
2022-12-09T19:18:08.225Z,1.58
2022-12-09T19:21:35.622Z,1.63
2022-12-09T19:25:04.558Z,1.68
2022-12-09T19:28:32.795Z,1.71
2022-12-09T19:32:01.241Z,1.78
2022-12-09T19:35:30.950Z,1.80
2022-12-09T19:39:00.767Z,1.78
2022-12-09T19:42:30.668Z,1.72
2022-12-09T19:46:12.219Z,1.67
2022-12-09T19:49:47.690Z,1.59
2022-12-09T19:53:15.231Z,1.53
2022-12-09T19:56:54.944Z,1.51
2022-12-09T20:00:50.531Z,1.50
2022-12-09T20:04:47.561Z,1.46
2022-12-09T20:08:10.436Z,1.42
2022-12-09T20:11:40.744Z,1.41
2022-12-09T20:15:09.288Z,1.41
2022-12-09T20:18:36.468Z,1.42
2022-12-09T20:22:03.212Z,1.43
2022-12-09T20:25:36.657Z,1.43
2022-12-09T20:29:06.490Z,1.43
2022-12-09T20:32:33.864Z,1.48
2022-12-09T20:36:08.339Z,1.55
2022-12-09T20:39:35.527Z,1.61
2022-12-09T20:43:02.229Z,1.70
2022-12-09T20:46:32.675Z,1.76
2022-12-09T20:49:59.207Z,1.76
2022-12-09T20:53:25.789Z,1.78
2022-12-09T20:56:54.931Z,1.81
2022-12-09T21:00:22.417Z,1.79
2022-12-09T21:03:49.798Z,1.72
2022-12-09T21:07:17.041Z,1.69
2022-12-09T21:10:46.532Z,1.67
2022-12-09T21:14:18.339Z,1.64
2022-12-09T21:17:46.902Z,1.60
2022-12-09T21:21:14.384Z,1.55
2022-12-09T21:24:41.220Z,1.53
2022-12-09T21:28:11.524Z,1.50
2022-12-09T21:31:41.055Z,1.48
2022-12-09T21:35:09.269Z,1.49
2022-12-09T21:38:36.481Z,1.52
2022-12-09T21:42:03.462Z,1.58
2022-12-09T21:45:30.645Z,1.63
2022-12-09T21:49:03.249Z,1.67
2022-12-09T21:52:30.988Z,1.72
2022-12-09T21:56:02.032Z,1.74
2022-12-09T21:59:29.292Z,1.74
2022-12-09T22:02:56.447Z,1.74
2022-12-09T22:06:24.393Z,1.67
2022-12-09T22:09:51.896Z,1.69
2022-12-09T22:13:18.881Z,1.67
2022-12-09T22:16:47.552Z,1.67
2022-12-09T22:20:54.019Z,1.65
2022-12-09T22:24:05.695Z,1.61
2022-12-09T22:27:35.872Z,1.52
2022-12-09T22:31:03.437Z,1.52
2022-12-09T22:34:30.147Z,1.47
2022-12-09T22:37:59.215Z,1.45
2022-12-09T22:41:30.040Z,1.47
2022-12-09T22:44:56.668Z,1.48
2022-12-09T22:48:23.087Z,1.52
2022-12-09T22:51:50.107Z,1.54
2022-12-09T22:55:16.951Z,1.60
2022-12-09T22:58:45.604Z,1.69
2022-12-09T23:02:18.788Z,1.74
2022-12-09T23:05:44.260Z,1.84
2022-12-09T23:09:14.903Z,1.85
2022-12-09T23:12:44.588Z,1.90
2022-12-09T23:16:16.191Z,1.92
2022-12-09T23:19:42.989Z,1.92
2022-12-09T23:23:09.932Z,1.92
2022-12-09T23:26:45.137Z,1.86
2022-12-09T23:30:14.292Z,1.77
2022-12-09T23:33:42.877Z,1.66
2022-12-09T23:37:09.863Z,1.54
2022-12-09T23:40:36.803Z,1.47
2022-12-09T23:44:03.529Z,1.40
2022-12-09T23:47:30.794Z,1.34
2022-12-09T23:50:57.430Z,1.35
2022-12-09T23:54:30.523Z,1.34
2022-12-09T23:57:57.778Z,1.35
